Terminal Aerodrome Forecast
Issued by NWS

Home | Current Version | Previous Version | Text Only | Print | Product List | Glossary On
Versions: 1 2 3 4 5 6 7 8 9 10 11 12 13 14 15
000
FTUS45 KTFX 180220 AAA
TAFGTF
TAF AMD
KGTF 180220Z 1802/1824 24015KT P6SM SCT100 BKN180
      TEMPO 1810/1814 BKN080
     FM181700 24022G30KT P6SM SKC=

USA.gov is the U.S. government's official web portal to all federal, state and local government web resources and services.